Time;durP1;ratioP1;P1;durP2;ratioP2;P2;SDS_P1;SDS_P2;PMS_P1;PMS_P2;Temp;Humidity;BMP_temperature;BMP_pressure;BME280_temperature;BME280_humidity;BME280_pressure;Samples;Min_cycle;Max_cycle;Signal;HPM_P1;HPM_P2
2023/02/03 00:00:08;;;;;;;3.10;2.20;;;;;;;0.33;77.74;95721.96;106555;1276;23884;-67
2023/02/03 00:02:58;;;;;;;4.90;2.10;;;;;;;0.27;77.97;95730.30;106570;1276;25214;-67
2023/02/03 00:05:28;;;;;;;3.40;2.00;;;;;;;0.21;77.85;95735.70;106563;1276;22525;-67
2023/02/03 00:07:57;;;;;;;3.10;2.40;;;;;;;0.16;77.90;95737.83;106599;1276;24312;-67
2023/02/03 00:10:26;;;;;;;4.50;2.30;;;;;;;0.14;78.02;95740.21;106657;1276;22535;-67
2023/02/03 00:12:56;;;;;;;7.20;2.80;;;;;;;0.14;77.87;95737.96;106634;1276;26733;-68
2023/02/03 00:15:25;;;;;;;4.80;2.10;;;;;;;0.13;77.41;95740.17;106622;1272;25559;-67
2023/02/03 00:17:53;;;;;;;3.40;1.90;;;;;;;0.10;77.15;95733.55;106632;1276;22533;-67
2023/02/03 00:20:22;;;;;;;4.40;1.90;;;;;;;0.08;77.03;95733.48;106609;1276;22662;-67
2023/02/03 00:22:51;;;;;;;4.10;2.20;;;;;;;0.04;76.51;95736.86;106636;1276;22632;-67
2023/02/03 00:25:20;;;;;;;3.20;1.90;;;;;;;0.03;76.81;95734.92;106637;1276;23789;-67
2023/02/03 00:27:48;;;;;;;4.70;1.80;;;;;;;-0.02;76.47;95739.13;106540;1276;22548;-67
2023/02/03 00:30:17;;;;;;;2.80;1.90;;;;;;;-0.11;76.56;95742.55;106610;1275;22758;-68
2023/02/03 00:32:45;;;;;;;2.50;1.90;;;;;;;-0.21;76.99;95739.52;106598;1276;23877;-68
2023/02/03 00:35:13;;;;;;;4.30;2.20;;;;;;;-0.35;77.12;95748.85;106545;1276;23144;-68
2023/02/03 00:37:41;;;;;;;3.80;2.00;;;;;;;-0.48;77.65;95754.05;106767;1276;22524;-67
2023/02/03 00:40:11;;;;;;;4.30;2.40;;;;;;;-0.60;77.80;95764.63;106586;1276;22525;-67
2023/02/03 00:42:39;;;;;;;3.80;2.00;;;;;;;-0.68;78.81;95767.00;106667;1276;24364;-68
2023/02/03 00:45:08;;;;;;;4.00;2.30;;;;;;;-0.75;78.83;95773.86;106584;1276;22520;-67
2023/02/03 00:47:36;;;;;;;5.40;2.10;;;;;;;-0.82;79.20;95779.03;106572;1276;25350;-67
2023/02/03 00:50:06;;;;;;;3.90;2.10;;;;;;;-0.85;79.42;95784.64;106572;1276;22527;-67
2023/02/03 00:52:35;;;;;;;4.90;2.30;;;;;;;-0.84;80.26;95791.23;106652;1269;25322;-67
2023/02/03 00:55:05;;;;;;;3.50;1.80;;;;;;;-0.84;80.18;95794.70;106648;1260;24196;-67
2023/02/03 00:57:33;;;;;;;4.30;2.00;;;;;;;-0.83;80.11;95786.44;106575;1276;23877;-67
2023/02/03 01:00:03;;;;;;;3.60;2.00;;;;;;;-0.81;80.43;95784.08;106605;1275;22578;-67
2023/02/03 01:02:31;;;;;;;2.80;1.80;;;;;;;-0.78;80.44;95787.96;106626;1276;22595;-67
2023/02/03 01:04:59;;;;;;;5.30;3.00;;;;;;;-0.78;80.76;95793.65;106618;1276;22571;-67
2023/02/03 01:07:31;;;;;;;3.70;2.50;;;;;;;-0.77;80.74;95798.01;106537;1276;22524;-67
2023/02/03 01:10:00;;;;;;;3.70;2.60;;;;;;;-0.72;80.11;95799.67;106597;1276;22534;-67
2023/02/03 01:12:30;;;;;;;4.70;2.60;;;;;;;-0.67;79.71;95797.94;106403;1276;22653;-67
2023/02/03 01:14:59;;;;;;;3.90;2.70;;;;;;;-0.61;79.63;95799.14;106615;1276;22877;-68
2023/02/03 01:17:27;;;;;;;4.70;2.40;;;;;;;-0.58;79.52;95799.91;106570;1276;22782;-67
2023/02/03 01:19:55;;;;;;;4.60;2.40;;;;;;;-0.55;79.57;95808.45;106592;1276;22523;-67
2023/02/03 01:22:24;;;;;;;4.10;2.10;;;;;;;-0.54;79.34;95810.38;106589;1254;22553;-68
2023/02/03 01:24:52;;;;;;;5.70;2.70;;;;;;;-0.55;79.55;95813.30;106574;1276;25393;-67
2023/02/03 01:27:20;;;;;;;3.20;2.20;;;;;;;-0.50;79.49;95823.45;106591;1276;22527;-67
2023/02/03 01:29:48;;;;;;;3.80;2.50;;;;;;;-0.47;78.96;95826.98;106598;1276;24271;-67
2023/02/03 01:32:17;;;;;;;3.90;2.50;;;;;;;-0.43;78.44;95833.66;106580;1253;22516;-67
2023/02/03 01:34:45;;;;;;;4.00;2.40;;;;;;;-0.39;77.96;95836.71;106598;1276;24260;-67
2023/02/03 01:37:16;;;;;;;4.00;2.10;;;;;;;-0.35;77.88;95834.41;106524;1276;24417;-68
2023/02/03 01:39:44;;;;;;;4.80;2.70;;;;;;;-0.29;78.01;95834.76;106592;1276;25511;-67
2023/02/03 01:42:14;;;;;;;3.10;2.30;;;;;;;-0.27;78.23;95834.63;106544;1276;22633;-67
2023/02/03 01:44:50;;;;;;;5.00;2.60;;;;;;;-0.30;77.70;95826.77;106688;1276;22530;-67
2023/02/03 01:47:22;;;;;;;4.10;2.10;;;;;;;-0.30;77.91;95826.60;106646;1276;22530;-67
2023/02/03 01:50:04;;;;;;;4.70;2.70;;;;;;;-0.33;77.01;95823.90;106569;1276;22685;-68
2023/02/03 01:52:34;;;;;;;3.90;2.20;;;;;;;-0.37;77.32;95825.21;106580;1276;22524;-67
2023/02/03 01:55:06;;;;;;;3.50;2.10;;;;;;;-0.43;77.44;95829.87;106630;1276;22615;-67
2023/02/03 01:57:42;;;;;;;3.50;2.50;;;;;;;-0.52;76.95;95835.48;106587;1270;23347;-67
2023/02/03 02:00:11;;;;;;;3.90;2.20;;;;;;;-0.58;77.26;95840.52;106576;1276;24257;-67
2023/02/03 02:02:45;;;;;;;2.90;2.10;;;;;;;-0.67;77.00;95843.02;106628;1276;22547;-67
2023/02/03 02:05:24;;;;;;;4.20;2.60;;;;;;;-0.73;77.12;95850.45;106557;1254;25634;-67
2023/02/03 02:07:53;;;;;;;5.40;2.40;;;;;;;-0.79;77.37;95857.19;106567;1276;24316;-67
2023/02/03 02:10:22;;;;;;;4.60;2.50;;;;;;;-0.81;78.18;95856.27;106663;1276;22537;-67
2023/02/03 02:12:51;;;;;;;3.30;2.00;;;;;;;-0.84;78.15;95858.08;106573;1276;23877;-67
2023/02/03 02:15:23;;;;;;;3.40;2.20;;;;;;;-0.89;78.54;95856.56;106575;1276;22524;-67
2023/02/03 02:18:27;;;;;;;3.80;2.60;;;;;;;-0.91;77.57;95851.66;106578;1276;24843;-67
2023/02/03 02:21:21;;;;;;;5.60;3.00;;;;;;;-0.86;78.03;95852.84;106571;1276;25455;-68
2023/02/03 02:24:17;;;;;;;4.70;2.90;;;;;;;-0.80;77.74;95853.87;106631;1276;22528;-68
2023/02/03 02:27:00;;;;;;;4.60;3.00;;;;;;;-0.73;78.30;95852.52;106428;1276;22699;-68
2023/02/03 02:29:34;;;;;;;;;;;;;;;-0.69;78.76;95857.82;106623;1276;22621;-67
2023/02/03 02:32:27;;;;;;;4.70;2.30;;;;;;;-0.68;79.22;95859.40;106607;1276;25306;-67
2023/02/03 02:35:13;;;;;;;3.90;2.30;;;;;;;-0.68;78.61;95863.73;106562;1275;24484;-67
2023/02/03 02:38:19;;;;;;;3.80;3.10;;;;;;;-0.64;78.19;95866.26;106612;1276;25451;-67
2023/02/03 02:41:04;;;;;;;5.10;2.20;;;;;;;-0.61;78.12;95868.06;106590;1276;23883;-67
2023/02/03 02:43:37;;;;;;;4.20;2.40;;;;;;;-0.61;78.13;95867.73;106601;1266;25220;-67
2023/02/03 02:46:09;;;;;;;4.00;2.40;;;;;;;-0.59;78.18;95864.67;106684;1276;25468;-67
2023/02/03 02:48:58;;;;;;;4.50;2.60;;;;;;;-0.59;77.40;95860.35;106564;1276;24487;-67
2023/02/03 02:51:28;;;;;;;4.20;2.30;;;;;;;-0.59;77.02;95863.98;106606;1276;22531;-69
2023/02/03 02:54:04;;;;;;;3.20;2.30;;;;;;;-0.57;77.15;95867.48;106643;1276;22527;-67
2023/02/03 02:56:35;;;;;;;2.50;2.20;;;;;;;-0.56;76.00;95865.26;106577;1276;22523;-67
2023/02/03 02:59:06;;;;;;;3.80;2.10;;;;;;;-0.58;76.00;95863.00;106590;1276;22708;-67
2023/02/03 03:01:34;;;;;;;3.20;2.30;;;;;;;-0.60;76.19;95858.24;106659;1276;25297;-66
2023/02/03 03:04:06;;;;;;;4.80;2.20;;;;;;;-0.61;76.14;95864.44;106599;1266;22534;-67
2023/02/03 03:06:39;;;;;;;3.10;2.00;;;;;;;-0.63;75.98;95869.75;106576;1276;25233;-67
2023/02/03 03:09:37;;;;;;;3.70;2.50;;;;;;;-0.63;75.89;95870.95;106571;1276;25396;-67
2023/02/03 03:12:18;;;;;;;3.10;2.20;;;;;;;-0.64;76.04;95873.86;106584;1276;22523;-67
2023/02/03 03:14:57;;;;;;;5.90;2.80;;;;;;;-0.65;76.55;95885.22;106643;1276;25259;-67
2023/02/03 03:17:56;;;;;;;8.20;2.60;;;;;;;-0.70;77.87;95882.15;106603;1276;25499;-67
2023/02/03 03:20:26;;;;;;;4.50;2.60;;;;;;;-0.75;78.47;95878.55;106535;1276;22656;-67
2023/02/03 03:23:06;;;;;;;6.00;2.00;;;;;;;-0.77;78.15;95878.84;106642;1275;25414;-67
2023/02/03 03:26:11;;;;;;;5.20;2.30;;;;;;;-0.79;77.96;95879.29;106646;1276;25469;-67
2023/02/03 03:28:43;;;;;;;4.70;2.50;;;;;;;-0.82;78.16;95886.11;106382;1276;25558;-67
2023/02/03 03:31:12;;;;;;;3.90;2.30;;;;;;;-0.81;77.98;95884.23;106601;1276;22613;-67
2023/02/03 03:33:41;;;;;;;3.80;2.00;;;;;;;-0.78;77.44;95887.60;106622;1262;22682;-67
2023/02/03 03:36:22;;;;;;;3.70;2.10;;;;;;;-0.76;76.91;95885.42;106585;1276;22684;-67
2023/02/03 03:39:09;;;;;;;3.30;2.10;;;;;;;-0.77;76.64;95891.80;106558;1276;22743;-67
2023/02/03 03:41:46;;;;;;;13.90;6.50;;;;;;;-0.78;76.57;95896.77;106656;1270;22526;-67
2023/02/03 03:44:18;;;;;;;5.30;3.00;;;;;;;-0.78;76.57;95901.45;106587;1276;24373;-67
2023/02/03 03:46:56;;;;;;;15.70;7.60;;;;;;;-0.77;76.47;95904.23;106616;1276;25439;-67
2023/02/03 03:49:26;;;;;;;16.40;9.30;;;;;;;-0.77;76.55;95906.80;106634;1276;22772;-67
2023/02/03 03:51:59;;;;;;;5.90;3.30;;;;;;;-0.82;76.53;95910.82;106674;1276;22527;-67
2023/02/03 03:54:31;;;;;;;18.50;9.70;;;;;;;-0.89;76.48;95910.80;106588;1276;25284;-67
2023/02/03 03:57:25;;;;;;;8.20;5.10;;;;;;;-0.93;76.58;95906.86;106815;1276;23916;-67
2023/02/03 03:59:54;;;;;;;9.60;5.50;;;;;;;-0.99;76.55;95910.48;106661;1276;22645;-67
2023/02/03 04:02:23;;;;;;;6.70;2.20;;;;;;;-1.06;76.57;95910.94;106639;1276;22514;-67
2023/02/03 04:04:53;;;;;;;2.50;2.20;;;;;;;-1.12;76.59;95912.50;106655;1276;22521;-67
2023/02/03 04:07:21;;;;;;;5.30;3.50;;;;;;;-1.15;77.16;95909.09;106612;1276;24241;-67
2023/02/03 04:09:49;;;;;;;2.40;1.90;;;;;;;-1.22;77.06;95908.57;106590;1276;22797;-67
2023/02/03 04:12:22;;;;;;;2.80;1.90;;;;;;;-1.24;77.00;95911.59;106647;1276;25147;-67
2023/02/03 04:14:50;;;;;;;5.20;3.00;;;;;;;-1.25;76.84;95912.94;106595;1276;23143;-67
2023/02/03 04:17:19;;;;;;;6.40;3.50;;;;;;;-1.22;76.81;95917.86;106571;1276;22769;-67
2023/02/03 04:19:48;;;;;;;8.00;4.90;;;;;;;-1.21;76.42;95917.39;106633;1276;22538;-67
2023/02/03 04:22:16;;;;;;;16.80;9.20;;;;;;;-1.22;75.44;95913.38;106583;1276;23877;-67
2023/02/03 04:24:44;;;;;;;6.60;3.10;;;;;;;-1.23;75.69;95915.95;106557;1276;25564;-67
2023/02/03 04:27:12;;;;;;;11.20;4.00;;;;;;;-1.22;76.29;95918.55;106572;1266;22519;-65
2023/02/03 04:29:41;;;;;;;4.70;2.50;;;;;;;-1.26;76.94;95924.30;106119;1276;697446;-66
2023/02/03 04:32:09;;;;;;;5.60;3.10;;;;;;;-1.31;77.22;95922.41;106595;1276;22605;-66
2023/02/03 04:34:37;;;;;;;4.10;2.50;;;;;;;-1.33;77.71;95923.23;106577;1276;22540;-66
2023/02/03 04:37:05;;;;;;;3.60;2.00;;;;;;;-1.26;78.00;95921.38;106540;1276;22533;-66
2023/02/03 04:39:33;;;;;;;6.00;2.90;;;;;;;-1.22;77.65;95924.95;106573;1276;22639;-67
2023/02/03 04:42:01;;;;;;;3.90;2.50;;;;;;;-1.16;76.88;95924.10;106604;1276;22650;-66
2023/02/03 04:44:30;;;;;;;5.20;3.20;;;;;;;-1.11;76.83;95924.11;106608;1276;22640;-66
2023/02/03 04:46:58;;;;;;;3.40;2.20;;;;;;;-1.09;77.39;95921.89;106593;1276;22533;-66
2023/02/03 04:49:26;;;;;;;3.10;2.10;;;;;;;-1.11;77.54;95928.05;106653;1275;22946;-66
2023/02/03 04:51:54;;;;;;;2.70;1.80;;;;;;;-1.14;77.62;95925.02;106568;1276;24067;-66
2023/02/03 04:54:22;;;;;;;3.60;1.90;;;;;;;-1.20;77.44;95922.59;106602;1265;22547;-66
2023/02/03 04:56:51;;;;;;;3.50;1.80;;;;;;;-1.22;78.06;95924.59;106590;1276;24196;-66
2023/02/03 04:59:19;;;;;;;2.50;2.00;;;;;;;-1.29;77.70;95929.56;106638;1276;24204;-66
2023/02/03 05:01:47;;;;;;;4.40;2.20;;;;;;;-1.33;77.53;95927.02;106593;1276;25323;-66
2023/02/03 05:04:15;;;;;;;2.50;1.70;;;;;;;-1.35;76.35;95926.09;106722;1276;22520;-66
2023/02/03 05:06:43;;;;;;;2.80;1.60;;;;;;;-1.34;76.49;95928.36;106691;1276;24350;-66
2023/02/03 05:09:11;;;;;;;2.20;1.60;;;;;;;-1.35;76.85;95936.61;106636;1276;25333;-66
2023/02/03 05:11:40;;;;;;;7.80;5.10;;;;;;;-1.40;77.57;95940.94;106701;1276;24186;-66
2023/02/03 05:14:08;;;;;;;4.80;3.20;;;;;;;-1.41;76.45;95936.95;106640;1276;24266;-66
2023/02/03 05:16:36;;;;;;;2.60;1.80;;;;;;;-1.39;77.12;95939.40;106541;1276;24348;-66
2023/02/03 05:19:04;;;;;;;2.90;1.80;;;;;;;-1.38;77.53;95938.41;106639;1276;22519;-66
2023/02/03 05:21:33;;;;;;;2.10;1.50;;;;;;;-1.36;77.71;95936.73;106652;1276;22525;-66
2023/02/03 05:24:02;;;;;;;20.70;11.10;;;;;;;-1.39;77.61;95943.89;106823;1276;22529;-66
2023/02/03 05:26:30;;;;;;;12.50;7.10;;;;;;;-1.40;75.86;95949.23;106590;1276;25421;-67
2023/02/03 05:28:58;;;;;;;8.60;5.90;;;;;;;-1.35;75.65;95951.09;106580;1276;24245;-66
2023/02/03 05:31:27;;;;;;;9.90;5.80;;;;;;;-1.32;76.25;95954.84;106613;1276;22873;-66
2023/02/03 05:33:55;;;;;;;6.50;3.70;;;;;;;-1.30;75.59;95960.08;106581;1276;22521;-66
2023/02/03 05:36:23;;;;;;;7.60;4.10;;;;;;;-1.25;75.60;95960.23;106566;1276;22519;-67
2023/02/03 05:38:51;;;;;;;23.80;12.90;;;;;;;-1.20;76.38;95957.11;106633;1276;22527;-66
2023/02/03 05:44:07;;;;;;;3.60;2.60;;;;;;;-1.14;75.98;95954.36;106650;1276;22528;-66
2023/02/03 05:46:35;;;;;;;2.60;1.80;;;;;;;-1.08;76.58;95955.42;106607;1276;22525;-67
2023/02/03 05:49:03;;;;;;;3.90;2.70;;;;;;;-1.06;75.45;95958.92;106604;1276;22718;-67
2023/02/03 05:51:31;;;;;;;8.60;5.00;;;;;;;-1.06;75.22;95958.95;106581;1276;22521;-67
2023/02/03 05:53:59;;;;;;;7.20;4.00;;;;;;;-1.02;75.77;95953.70;106607;1276;24273;-66
2023/02/03 05:56:27;;;;;;;4.90;3.30;;;;;;;-0.99;74.89;95955.35;106796;1276;22513;-66
2023/02/03 05:58:55;;;;;;;7.10;4.00;;;;;;;-1.02;74.58;95952.68;106659;1276;24442;-68
2023/02/03 06:01:24;;;;;;;5.00;3.80;;;;;;;-1.02;75.18;95958.39;106587;1276;24462;-68
2023/02/03 06:03:52;;;;;;;2.10;1.70;;;;;;;-1.07;74.75;95956.66;106602;1276;25520;-70
2023/02/03 06:06:20;;;;;;;3.50;2.10;;;;;;;-1.09;74.70;95961.95;106481;1276;25214;-69
2023/02/03 06:08:51;;;;;;;5.30;4.30;;;;;;;-1.10;74.20;95966.58;106607;1276;22521;-67
2023/02/03 06:11:19;;;;;;;10.30;5.90;;;;;;;-1.10;74.58;95967.63;106636;1276;25414;-70
2023/02/03 06:13:47;;;;;;;8.10;5.20;;;;;;;-1.11;74.31;95969.48;106537;1276;22543;-69
2023/02/03 06:16:15;;;;;;;4.10;2.50;;;;;;;-1.11;74.32;95974.67;106450;1276;23094;-73
2023/02/03 06:18:45;;;;;;;6.70;3.40;;;;;;;-1.10;74.02;95977.13;109310;1276;25233;-72
2023/02/03 06:21:13;;;;;;;4.70;2.80;;;;;;;-1.10;74.05;95978.68;106574;1276;22521;-68
2023/02/03 06:23:41;;;;;;;5.60;2.90;;;;;;;-1.11;74.10;95981.74;106651;1276;22520;-69
2023/02/03 06:26:09;;;;;;;4.10;2.50;;;;;;;-1.12;74.41;95991.05;106479;1276;22770;-70
2023/02/03 06:28:37;;;;;;;4.10;2.00;;;;;;;-1.07;74.64;95998.95;106616;1276;25217;-69
2023/02/03 06:31:06;;;;;;;4.80;3.20;;;;;;;-1.05;74.80;96001.61;106661;1276;25878;-68
2023/02/03 06:33:35;;;;;;;3.60;2.40;;;;;;;-1.02;74.84;95998.59;106987;1276;25433;-68
2023/02/03 06:36:03;;;;;;;5.10;2.80;;;;;;;-1.00;74.36;95996.27;106635;1276;25481;-73
2023/02/03 06:38:31;;;;;;;19.40;7.80;;;;;;;-0.97;73.94;95997.39;106665;1272;22759;-71
2023/02/03 06:40:59;;;;;;;6.30;2.60;;;;;;;-0.93;73.82;96000.44;106425;1276;25468;-72
2023/02/03 06:43:27;;;;;;;2.90;2.00;;;;;;;-0.86;73.23;96003.42;106421;1275;25380;-72
2023/02/03 06:45:56;;;;;;;9.10;5.90;;;;;;;-0.80;73.47;95998.80;106517;1270;22539;-68
2023/02/03 06:48:24;;;;;;;53.40;31.70;;;;;;;-0.77;73.39;95999.23;106633;1275;22578;-70
2023/02/03 06:50:52;;;;;;;21.30;13.40;;;;;;;-0.69;73.67;96001.55;106506;1276;24417;-71
2023/02/03 06:53:20;;;;;;;5.30;3.00;;;;;;;-0.59;73.09;96003.77;106563;1275;25344;-69
2023/02/03 06:55:48;;;;;;;19.90;12.50;;;;;;;-0.48;73.34;96005.46;106574;1275;25371;-71
2023/02/03 06:58:16;;;;;;;5.60;3.30;;;;;;;-0.41;72.39;96007.75;106534;1275;22664;-72
2023/02/03 07:00:45;;;;;;;13.60;10.00;;;;;;;-0.41;70.91;96005.00;106656;1276;25172;-72
2023/02/03 07:03:13;;;;;;;11.50;6.00;;;;;;;-0.30;71.15;96012.74;106545;1276;22625;-69
2023/02/03 07:05:41;;;;;;;4.60;2.80;;;;;;;-0.18;71.56;96014.65;106687;1275;25336;-70
2023/02/03 07:08:10;;;;;;;11.10;5.60;;;;;;;-0.04;70.29;96012.14;106657;1275;22525;-75
2023/02/03 07:10:38;;;;;;;6.60;4.10;;;;;;;0.02;70.12;96014.55;106369;1276;24379;-69
2023/02/03 07:13:07;;;;;;;2.50;2.30;;;;;;;0.06;70.58;96014.48;106465;1276;25991;-68
2023/02/03 07:15:35;;;;;;;3.60;2.10;;;;;;;0.06;69.82;96004.13;106460;1276;25399;-68
2023/02/03 07:18:03;;;;;;;3.20;1.90;;;;;;;0.02;69.18;96005.56;106485;1275;25217;-70
2023/02/03 07:20:31;;;;;;;7.60;4.00;;;;;;;0.01;69.72;96002.42;106564;1275;24475;-67
2023/02/03 07:22:59;;;;;;;4.70;2.80;;;;;;;-0.02;69.42;96002.34;106376;1275;22559;-67
2023/02/03 07:25:28;;;;;;;3.90;2.20;;;;;;;-0.06;69.65;96008.09;106646;1275;22636;-68
2023/02/03 07:27:56;;;;;;;3.90;2.50;;;;;;;-0.11;69.46;96007.26;106666;1276;22649;-66
2023/02/03 07:30:25;;;;;;;3.00;2.10;;;;;;;-0.17;69.93;96011.23;106474;1275;23749;-66
2023/02/03 07:32:53;;;;;;;3.40;2.20;;;;;;;-0.19;70.36;96010.84;106570;1276;22558;-67
2023/02/03 07:35:21;;;;;;;3.80;2.70;;;;;;;-0.17;70.42;96009.86;106894;1264;22786;-68
2023/02/03 07:37:50;;;;;;;4.40;2.50;;;;;;;-0.17;70.30;96007.61;106578;1276;22529;-67
2023/02/03 07:40:19;;;;;;;3.60;2.30;;;;;;;-0.13;70.38;96007.21;106556;1275;22932;-66
2023/02/03 07:42:48;;;;;;;3.10;2.40;;;;;;;-0.07;69.98;96006.89;106568;1276;22533;-70
2023/02/03 07:45:18;;;;;;;3.20;1.90;;;;;;;0.05;70.32;96011.20;106508;1276;23848;-66
2023/02/03 07:47:46;;;;;;;5.40;4.80;;;;;;;0.19;69.81;96010.90;107026;1275;22520;-68
2023/02/03 07:50:14;;;;;;;4.20;3.20;;;;;;;0.30;70.15;96015.00;107404;1263;22516;-68
2023/02/03 07:52:43;;;;;;;5.80;3.90;;;;;;;0.41;69.94;96012.54;106461;1276;24346;-68
2023/02/03 07:55:11;;;;;;;6.80;3.50;;;;;;;0.43;68.38;96006.86;106253;1275;22646;-69
2023/02/03 07:57:42;;;;;;;4.90;2.90;;;;;;;0.45;68.76;96011.92;106596;1276;22648;-68
2023/02/03 08:00:13;;;;;;;7.10;4.50;;;;;;;0.53;68.75;96006.96;106793;1276;22516;-69
2023/02/03 08:02:42;;;;;;;7.40;5.00;;;;;;;0.56;68.62;96004.80;107030;1276;22725;-67
2023/02/03 08:05:11;;;;;;;3.10;2.70;;;;;;;0.52;67.95;96002.60;107240;1276;24903;-67
2023/02/03 08:07:39;;;;;;;2.90;2.20;;;;;;;0.59;67.77;95998.99;107666;1276;22595;-67
2023/02/03 08:10:11;;;;;;;2.40;1.80;;;;;;;0.67;67.42;95998.66;106561;1253;22817;-66
2023/02/03 08:12:39;;;;;;;2.80;1.70;;;;;;;0.75;66.57;95993.52;106606;1276;24317;-66
2023/02/03 08:15:09;;;;;;;2.30;1.80;;;;;;;0.87;66.77;95993.13;106453;1276;22530;-68
2023/02/03 08:17:39;;;;;;;2.80;1.70;;;;;;;0.90;65.76;95985.92;106487;1276;24236;-68
2023/02/03 08:20:09;;;;;;;5.10;3.20;;;;;;;0.91;66.15;95984.04;106762;1276;25262;-67
2023/02/03 08:22:37;;;;;;;3.50;2.40;;;;;;;0.86;65.48;95979.05;106432;1276;24227;-66
2023/02/03 08:25:06;;;;;;;3.70;2.20;;;;;;;0.81;64.99;95979.13;106478;1276;23191;-66
2023/02/03 08:27:34;;;;;;;1.80;1.60;;;;;;;0.79;65.21;95983.92;106624;1276;22538;-69
2023/02/03 08:30:03;;;;;;;3.40;2.30;;;;;;;0.74;65.34;95985.88;106520;1276;24510;-67
2023/02/03 08:32:32;;;;;;;4.30;3.70;;;;;;;0.74;65.85;95984.14;106387;1266;25284;-68
2023/02/03 08:35:01;;;;;;;3.70;3.00;;;;;;;0.68;65.33;95989.70;106597;1276;22678;-69
2023/02/03 08:37:31;;;;;;;3.20;2.20;;;;;;;0.63;65.64;95981.96;106391;1275;22517;-70
2023/02/03 08:39:59;;;;;;;2.30;1.90;;;;;;;0.61;65.62;95978.26;106551;1276;22597;-67
2023/02/03 08:42:31;;;;;;;3.00;1.90;;;;;;;0.66;65.33;95982.38;106431;1276;24044;-70
2023/02/03 08:45:00;;;;;;;4.60;2.40;;;;;;;0.67;65.08;95978.93;106760;1275;24259;-69
2023/02/03 08:47:31;;;;;;;5.60;3.40;;;;;;;0.83;64.86;95983.32;106747;1276;25509;-68
2023/02/03 08:49:59;;;;;;;6.00;3.20;;;;;;;1.04;65.13;95976.56;106376;1275;24225;-67
2023/02/03 08:52:28;;;;;;;4.40;2.20;;;;;;;1.25;64.07;95978.61;106486;1276;24236;-65
2023/02/03 08:54:56;;;;;;;3.00;1.10;;;;;;;1.37;62.67;95973.69;106496;1276;22801;-69
2023/02/03 08:57:24;;;;;;;2.70;1.60;;;;;;;1.43;62.07;95967.42;106621;1275;24528;-68
2023/02/03 08:59:53;;;;;;;4.80;2.10;;;;;;;1.42;61.82;95965.48;106413;1276;25857;-77
2023/02/03 09:02:21;;;;;;;3.20;2.20;;;;;;;1.27;61.27;95968.61;106680;1275;22776;-74
2023/02/03 09:04:50;;;;;;;3.20;2.50;;;;;;;1.15;62.15;95967.30;106514;1275;22539;-67
2023/02/03 09:07:19;;;;;;;2.40;1.40;;;;;;;1.22;62.53;95966.76;106641;1275;22543;-66
2023/02/03 09:09:47;;;;;;;3.80;2.40;;;;;;;1.33;61.47;95962.69;106944;1276;25325;-67
2023/02/03 09:12:16;;;;;;;6.50;5.40;;;;;;;1.46;60.96;95960.55;106566;1276;22595;-66
2023/02/03 09:14:44;;;;;;;2.00;1.70;;;;;;;1.41;61.68;95959.75;106471;1275;24300;-67
2023/02/03 09:17:12;;;;;;;3.60;2.10;;;;;;;1.53;61.40;95955.51;106685;1275;22528;-66
2023/02/03 09:19:40;;;;;;;3.30;2.10;;;;;;;1.77;61.25;95955.34;106439;1276;24360;-67
2023/02/03 09:22:09;;;;;;;4.80;2.20;;;;;;;1.94;60.34;95953.59;106476;1275;24895;-68
2023/02/03 09:24:37;;;;;;;4.30;2.00;;;;;;;2.22;59.65;95940.44;106630;1276;24199;-67
2023/02/03 09:27:05;;;;;;;2.60;1.80;;;;;;;2.49;59.78;95940.09;106672;1276;24204;-67
2023/02/03 09:29:33;;;;;;;3.10;1.50;;;;;;;2.81;59.09;95937.15;106407;1275;22531;-67
2023/02/03 09:32:06;;;;;;;1.90;1.70;;;;;;;3.04;56.95;95936.48;106698;1275;24365;-67
2023/02/03 09:34:35;;;;;;;2.30;1.80;;;;;;;3.15;56.29;95930.40;106551;1276;25372;-68
2023/02/03 09:37:04;;;;;;;2.50;2.00;;;;;;;3.33;56.35;95933.80;106758;1275;26628;-67
2023/02/03 09:39:32;;;;;;;5.90;2.60;;;;;;;3.46;56.35;95936.43;106319;1275;25196;-67
2023/02/03 09:42:16;;;;;;;2.60;1.60;;;;;;;3.60;55.97;95939.05;106657;1275;22517;-67
2023/02/03 09:44:50;;;;;;;3.10;2.10;;;;;;;3.78;55.01;95941.73;106540;1276;24066;-68
2023/02/03 09:47:27;;;;;;;2.60;2.40;;;;;;;3.93;53.45;95941.05;106590;1275;22767;-70
2023/02/03 09:49:59;;;;;;;5.10;2.80;;;;;;;4.15;53.05;95936.45;106612;1276;22595;-70
2023/02/03 09:52:34;;;;;;;5.80;4.50;;;;;;;4.47;53.99;95931.05;106881;1260;25400;-70
2023/02/03 09:55:41;;;;;;;4.60;3.20;;;;;;;4.52;53.10;95934.77;106800;1276;22524;-69
2023/02/03 09:58:20;;;;;;;5.00;3.10;;;;;;;4.60;52.75;95924.73;108001;1276;24244;-68
2023/02/03 10:01:12;;;;;;;5.30;3.10;;;;;;;4.75;51.26;95925.75;106625;1275;24180;-68
2023/02/03 10:04:09;;;;;;;4.20;2.80;;;;;;;4.84;51.61;95926.54;106494;1264;22757;-68
2023/02/03 10:06:44;;;;;;;1.70;1.60;;;;;;;4.81;49.95;95928.25;106429;1276;23884;-68
2023/02/03 10:09:15;;;;;;;3.60;2.10;;;;;;;4.51;49.86;95921.70;107576;1275;25541;-67
2023/02/03 10:12:21;;;;;;;6.00;2.40;;;;;;;4.51;51.30;95920.82;106443;1276;22531;-68
2023/02/03 10:15:14;;;;;;;2.50;2.00;;;;;;;4.40;50.40;95919.50;106628;1276;22632;-69
2023/02/03 10:17:51;;;;;;;3.60;2.20;;;;;;;4.54;50.44;95924.67;106825;1276;24241;-68
2023/02/03 10:20:37;;;;;;;4.10;1.60;;;;;;;4.77;51.00;95923.34;106759;1266;22520;-69
2023/02/03 10:23:19;;;;;;;1.90;1.70;;;;;;;4.93;49.40;95925.21;106847;1275;22521;-69
2023/02/03 10:25:54;;;;;;;2.00;1.70;;;;;;;4.60;49.08;95923.35;106489;1276;25199;-68
2023/02/03 10:28:39;;;;;;;3.60;1.80;;;;;;;4.05;50.79;95932.52;106638;1275;25343;-68
2023/02/03 10:31:20;;;;;;;3.30;2.30;;;;;;;4.14;52.37;95928.25;106476;1276;24225;-69
2023/02/03 10:33:57;;;;;;;2.30;1.50;;;;;;;4.65;51.70;95921.66;106583;1276;23284;-68
2023/02/03 10:36:55;;;;;;;2.70;1.80;;;;;;;4.77;49.72;95911.65;106598;1275;22630;-69
2023/02/03 10:39:38;;;;;;;2.10;1.70;;;;;;;4.42;50.33;95908.19;106646;1275;24244;-69
2023/02/03 10:42:09;;;;;;;2.40;1.40;;;;;;;3.93;50.10;95911.65;106600;1276;24224;-69
2023/02/03 10:44:41;;;;;;;2.40;1.40;;;;;;;4.19;50.61;95903.77;106623;1276;24226;-69
2023/02/03 10:47:22;;;;;;;3.10;1.60;;;;;;;4.92;49.94;95899.06;106631;1276;22523;-70
2023/02/03 10:49:53;;;;;;;2.00;1.50;;;;;;;5.52;49.50;95885.16;106686;1275;22524;-70
2023/02/03 10:52:30;;;;;;;3.00;1.70;;;;;;;5.98;48.76;95876.16;106578;1276;22531;-71
2023/02/03 10:55:05;;;;;;;2.70;1.90;;;;;;;6.11;47.93;95869.57;106624;1276;25351;-70
2023/02/03 10:57:38;;;;;;;1.20;1.10;;;;;;;6.57;47.71;95864.95;106616;1276;25300;-71
2023/02/03 11:00:28;;;;;;;2.60;1.30;;;;;;;6.84;44.59;95856.59;106762;1276;22640;-71
2023/02/03 11:03:07;;;;;;;1.70;1.20;;;;;;;7.19;43.69;95857.27;106995;1276;24225;-70
2023/02/03 11:05:36;;;;;;;1.60;1.20;;;;;;;7.46;42.62;95852.48;106823;1276;24234;-70
2023/02/03 11:08:14;;;;;;;3.00;1.80;;;;;;;7.98;43.73;95844.24;106903;1276;22524;-71
2023/02/03 11:10:43;;;;;;;3.80;2.10;;;;;;;8.14;41.75;95840.85;106613;1275;24330;-71
2023/02/03 11:13:18;;;;;;;1.60;1.20;;;;;;;7.55;41.68;95844.06;106609;1254;24183;-71
2023/02/03 11:16:12;;;;;;;2.20;1.50;;;;;;;6.82;42.25;95843.46;106609;1275;24250;-70
2023/02/03 11:18:46;;;;;;;1.70;1.40;;;;;;;6.29;43.69;95838.17;106783;1276;22527;-71
2023/02/03 11:21:16;;;;;;;2.40;1.50;;;;;;;6.32;44.65;95837.31;106583;1275;25214;-70
2023/02/03 11:24:00;;;;;;;1.60;1.10;;;;;;;6.76;44.79;95831.23;106583;1275;22523;-70
2023/02/03 11:26:34;;;;;;;1.50;1.20;;;;;;;6.27;43.42;95828.03;106616;1276;22532;-70
2023/02/03 11:29:06;;;;;;;3.10;2.10;;;;;;;5.94;44.32;95819.39;106671;1276;24174;-69
2023/02/03 11:31:36;;;;;;;2.20;1.70;;;;;;;6.24;46.04;95811.24;106631;1276;22769;-70
2023/02/03 11:34:15;;;;;;;1.80;1.30;;;;;;;6.90;44.61;95801.15;106652;1276;25262;-70
2023/02/03 11:36:43;;;;;;;2.00;1.60;;;;;;;7.01;44.50;95801.13;106635;1263;22572;-70
2023/02/03 11:39:18;;;;;;;1.40;1.30;;;;;;;7.18;44.32;95801.47;106565;1276;22530;-70
2023/02/03 11:41:47;;;;;;;2.40;1.70;;;;;;;7.27;43.56;95798.46;106682;1275;23137;-71
2023/02/03 11:44:29;;;;;;;2.50;1.50;;;;;;;7.52;43.25;95805.02;106556;1276;25407;-70
2023/02/03 11:47:06;;;;;;;3.90;2.60;;;;;;;8.30;43.71;95801.52;106665;1276;23103;-70
2023/02/03 11:49:56;;;;;;;3.00;2.10;;;;;;;8.58;42.07;95800.47;106654;1276;23913;-70
2023/02/03 11:53:00;;;;;;;3.20;2.20;;;;;;;8.87;41.69;95792.86;106619;1276;22535;-70
2023/02/03 11:55:47;;;;;;;3.90;3.00;;;;;;;9.03;40.06;95783.59;106589;1276;22591;-70